sensor_id;sensor_type;location;lat;lon;timestamp;pressure;altitude;pressure_sealevel;temperature;humidity
63808;BME280;49961;43.970;22.868;2023-10-19T00:00:57;101430.19;;;7.98;100.00
63808;BME280;49961;43.970;22.868;2023-10-19T00:02:00;101446.72;;;8.05;100.00
63808;BME280;49961;43.970;22.868;2023-10-19T00:03:00;101393.16;;;7.68;100.00
63808;BME280;49961;43.970;22.868;2023-10-19T00:04:04;101448.72;;;7.98;100.00
63808;BME280;49961;43.970;22.868;2023-10-19T00:05:07;101392.34;;;7.64;100.00
63808;BME280;49961;43.970;22.868;2023-10-19T00:06:10;101446.75;;;8.02;100.00
63808;BME280;49961;43.970;22.868;2023-10-19T00:07:11;101453.44;;;8.01;100.00
63808;BME280;49961;43.970;22.868;2023-10-19T00:08:16;101390.00;;;7.59;100.00
63808;BME280;49961;43.970;22.868;2023-10-19T00:09:23;101451.06;;;8.03;100.00
63808;BME280;49961;43.970;22.868;2023-10-19T00:10:24;101447.94;;;7.97;100.00
63808;BME280;49961;43.970;22.868;2023-10-19T00:11:26;101445.97;;;8.01;100.00
63808;BME280;49961;43.970;22.868;2023-10-19T00:12:27;101447.94;;;7.97;100.00
63808;BME280;49961;43.970;22.868;2023-10-19T00:13:28;101449.88;;;8.00;100.00
63808;BME280;49961;43.970;22.868;2023-10-19T00:14:29;101452.28;;;7.98;100.00
63808;BME280;49961;43.970;22.868;2023-10-19T00:15:33;101397.88;;;7.64;100.00
63808;BME280;49961;43.970;22.868;2023-10-19T00:16:40;101442.41;;;7.90;100.00
63808;BME280;49961;43.970;22.868;2023-10-19T00:17:40;101447.13;;;7.97;100.00
63808;BME280;49961;43.970;22.868;2023-10-19T00:18:45;101453.03;;;7.95;100.00
63808;BME280;49961;43.970;22.868;2023-10-19T00:19:48;101447.13;;;7.93;100.00
63808;BME280;49961;43.970;22.868;2023-10-19T00:21:06;101436.47;;;7.78;100.00
63808;BME280;49961;43.970;22.868;2023-10-19T00:22:20;101410.88;;;7.56;100.00
63808;BME280;49961;43.970;22.868;2023-10-19T00:23:23;101445.56;;;7.82;100.00
63808;BME280;49961;43.970;22.868;2023-10-19T00:24:30;101438.06;;;7.75;100.00
63808;BME280;49961;43.970;22.868;2023-10-19T00:25:32;101447.13;;;7.76;100.00
63808;BME280;49961;43.970;22.868;2023-10-19T00:26:36;101399.44;;;7.40;100.00
63808;BME280;49961;43.970;22.868;2023-10-19T00:27:36;101449.47;;;7.70;100.00
63808;BME280;49961;43.970;22.868;2023-10-19T00:28:36;101436.47;;;7.57;100.00
63808;BME280;49961;43.970;22.868;2023-10-19T00:29:39;101450.28;;;7.64;100.00
63808;BME280;49961;43.970;22.868;2023-10-19T00:30:48;101427.00;;;7.40;100.00
63808;BME280;49961;43.970;22.868;2023-10-19T00:31:53;101447.50;;;7.57;100.00
63808;BME280;49961;43.970;22.868;2023-10-19T00:32:54;101440.81;;;7.47;100.00
63808;BME280;49961;43.970;22.868;2023-10-19T00:33:55;101394.22;;;7.07;100.00
63808;BME280;49961;43.970;22.868;2023-10-19T00:34:56;101446.28;;;7.37;100.00
63808;BME280;49961;43.970;22.868;2023-10-19T00:35:59;101433.25;;;7.27;100.00
63808;BME280;49961;43.970;22.868;2023-10-19T00:37:00;101428.53;;;7.27;100.00
63808;BME280;49961;43.970;22.868;2023-10-19T00:38:08;101400.94;;;7.06;100.00
63808;BME280;49961;43.970;22.868;2023-10-19T00:39:22;101457.72;;;7.35;100.00
63808;BME280;49961;43.970;22.868;2023-10-19T00:40:24;101430.13;;;7.25;100.00
63808;BME280;49961;43.970;22.868;2023-10-19T00:41:34;101457.31;;;7.37;100.00
63808;BME280;49961;43.970;22.868;2023-10-19T00:42:35;101395.75;;;6.91;100.00
63808;BME280;49961;43.970;22.868;2023-10-19T00:43:40;101437.56;;;7.14;100.00
63808;BME280;49961;43.970;22.868;2023-10-19T00:44:44;101455.31;;;7.20;100.00
63808;BME280;49961;43.970;22.868;2023-10-19T00:45:49;101458.88;;;7.20;100.00
63808;BME280;49961;43.970;22.868;2023-10-19T00:46:52;101377.94;;;6.64;100.00
63808;BME280;49961;43.970;22.868;2023-10-19T00:48:03;101385.84;;;6.69;100.00
63808;BME280;49961;43.970;22.868;2023-10-19T00:49:05;101449.78;;;7.16;100.00
63808;BME280;49961;43.970;22.868;2023-10-19T00:50:07;101411.91;;;6.89;100.00
63808;BME280;49961;43.970;22.868;2023-10-19T00:51:21;101454.13;;;7.21;100.00
63808;BME280;49961;43.970;22.868;2023-10-19T00:52:31;101459.63;;;7.21;100.00
63808;BME280;49961;43.970;22.868;2023-10-19T00:53:38;101453.72;;;7.19;100.00
63808;BME280;49961;43.970;22.868;2023-10-19T00:54:42;101401.25;;;6.87;100.00
63808;BME280;49961;43.970;22.868;2023-10-19T00:55:49;101450.97;;;7.19;100.00
63808;BME280;49961;43.970;22.868;2023-10-19T00:56:53;101410.72;;;6.93;100.00
63808;BME280;49961;43.970;22.868;2023-10-19T00:57:56;101422.53;;;6.97;100.00
63808;BME280;49961;43.970;22.868;2023-10-19T00:58:58;101448.16;;;7.08;100.00
63808;BME280;49961;43.970;22.868;2023-10-19T01:00:28;101455.31;;;7.20;100.00
63808;BME280;49961;43.970;22.868;2023-10-19T01:01:33;101446.63;;;7.14;100.00
63808;BME280;49961;43.970;22.868;2023-10-19T01:02:41;101454.13;;;7.17;100.00
63808;BME280;49961;43.970;22.868;2023-10-19T01:03:45;101452.91;;;7.15;100.00
63808;BME280;49961;43.970;22.868;2023-10-19T01:04:53;101447.78;;;7.10;100.00
63808;BME280;49961;43.970;22.868;2023-10-19T01:06:01;101381.91;;;6.66;100.00
63808;BME280;49961;43.970;22.868;2023-10-19T01:07:06;101460.00;;;7.12;100.00
63808;BME280;49961;43.970;22.868;2023-10-19T01:08:15;101448.59;;;7.10;100.00
63808;BME280;49961;43.970;22.868;2023-10-19T01:09:31;101411.88;;;6.85;100.00
63808;BME280;49961;43.970;22.868;2023-10-19T01:10:35;101446.22;;;7.12;100.00
63808;BME280;49961;43.970;22.868;2023-10-19T01:11:36;101441.09;;;7.11;100.00
63808;BME280;49961;43.970;22.868;2023-10-19T01:12:37;101447.03;;;7.13;100.00
63808;BME280;49961;43.970;22.868;2023-10-19T01:13:41;101443.84;;;7.11;100.00
63808;BME280;49961;43.970;22.868;2023-10-19T01:14:44;101446.22;;;7.12;100.00
63808;BME280;49961;43.970;22.868;2023-10-19T01:15:45;101442.28;;;7.13;100.00
63808;BME280;49961;43.970;22.868;2023-10-19T01:16:49;101444.28;;;7.13;100.00
63808;BME280;49961;43.970;22.868;2023-10-19T01:17:51;101438.38;;;7.14;100.00
63808;BME280;49961;43.970;22.868;2023-10-19T01:18:53;101441.13;;;7.14;100.00
63808;BME280;49961;43.970;22.868;2023-10-19T01:19:56;101439.16;;;7.15;100.00
63808;BME280;49961;43.970;22.868;2023-10-19T01:20:59;101441.13;;;7.18;100.00
63808;BME280;49961;43.970;22.868;2023-10-19T01:22:04;101420.63;;;7.08;100.00
63808;BME280;49961;43.970;22.868;2023-10-19T01:23:07;101436.81;;;7.20;100.00
63808;BME280;49961;43.970;22.868;2023-10-19T01:24:08;101429.31;;;7.21;100.00
63808;BME280;49961;43.970;22.868;2023-10-19T01:25:09;101395.38;;;6.96;100.00
63808;BME280;49961;43.970;22.868;2023-10-19T01:26:10;101434.44;;;7.19;100.00
63808;BME280;49961;43.970;22.868;2023-10-19T01:27:13;101439.19;;;7.22;100.00
63808;BME280;49961;43.970;22.868;2023-10-19T01:28:14;101428.16;;;7.22;100.00
63808;BME280;49961;43.970;22.868;2023-10-19T01:29:17;101434.44;;;7.22;100.00
63808;BME280;49961;43.970;22.868;2023-10-19T01:30:26;101420.28;;;7.20;100.00
63808;BME280;49961;43.970;22.868;2023-10-19T01:31:27;101420.66;;;7.26;100.00
63808;BME280;49961;43.970;22.868;2023-10-19T01:32:29;101402.13;;;7.05;100.00
63808;BME280;49961;43.970;22.868;2023-10-19T01:33:30;101406.06;;;7.18;100.00
63808;BME280;49961;43.970;22.868;2023-10-19T01:34:31;101377.69;;;7.04;100.00
63808;BME280;49961;43.970;22.868;2023-10-19T01:35:33;101418.31;;;7.31;100.00
63808;BME280;49961;43.970;22.868;2023-10-19T01:36:52;101367.44;;;7.01;100.00
63808;BME280;49961;43.970;22.868;2023-10-19T01:37:54;101391.47;;;7.11;100.00
63808;BME280;49961;43.970;22.868;2023-10-19T01:38:57;101422.25;;;7.37;100.00
63808;BME280;49961;43.970;22.868;2023-10-19T01:40:01;101419.13;;;7.39;100.00
63808;BME280;49961;43.970;22.868;2023-10-19T01:41:03;101417.13;;;7.39;100.00
63808;BME280;49961;43.970;22.868;2023-10-19T01:42:19;101406.09;;;7.36;100.00
63808;BME280;49961;43.970;22.868;2023-10-19T01:43:20;101367.84;;;6.99;100.00
63808;BME280;49961;43.970;22.868;2023-10-19T01:44:31;101420.31;;;7.41;100.00
63808;BME280;49961;43.970;22.868;2023-10-19T01:45:31;101419.50;;;7.44;100.00
63808;BME280;49961;43.970;22.868;2023-10-19T01:46:34;101382.44;;;7.14;100.00
63808;BME280;49961;43.970;22.868;2023-10-19T01:47:35;101416.75;;;7.41;100.00
63808;BME280;49961;43.970;22.868;2023-10-19T01:48:36;101427.00;;;7.47;100.00
63808;BME280;49961;43.970;22.868;2023-10-19T01:49:38;101423.06;;;7.48;100.00
63808;BME280;49961;43.970;22.868;2023-10-19T01:50:39;101378.91;;;7.20;100.00
63808;BME280;49961;43.970;22.868;2023-10-19T01:51:40;101413.22;;;7.44;100.00
63808;BME280;49961;43.970;22.868;2023-10-19T01:52:40;101421.09;;;7.52;100.00
63808;BME280;49961;43.970;22.868;2023-10-19T01:53:41;101429.00;;;7.54;100.00
63808;BME280;49961;43.970;22.868;2023-10-19T01:54:44;101425.06;;;7.55;100.00
63808;BME280;49961;43.970;22.868;2023-10-19T01:55:45;101395.88;;;7.36;100.00
63808;BME280;49961;43.970;22.868;2023-10-19T01:56:47;101417.56;;;7.45;100.00
63808;BME280;49961;43.970;22.868;2023-10-19T01:57:50;101364.34;;;7.20;100.00
63808;BME280;49961;43.970;22.868;2023-10-19T01:58:51;101430.19;;;7.63;100.00
63808;BME280;49961;43.970;22.868;2023-10-19T01:59:52;101430.59;;;7.65;100.00
63808;BME280;49961;43.970;22.868;2023-10-19T02:00:53;101422.28;;;7.58;100.00
63808;BME280;49961;43.970;22.868;2023-10-19T02:02:00;101389.16;;;7.44;100.00
63808;BME280;49961;43.970;22.868;2023-10-19T02:03:07;101425.06;;;7.65;100.00
63808;BME280;49961;43.970;22.868;2023-10-19T02:04:07;101412.44;;;7.61;100.00
63808;BME280;49961;43.970;22.868;2023-10-19T02:05:09;101426.66;;;7.70;100.00
63808;BME280;49961;43.970;22.868;2023-10-19T02:06:15;101413.63;;;7.60;100.00
63808;BME280;49961;43.970;22.868;2023-10-19T02:07:26;101426.63;;;7.73;100.00
63808;BME280;49961;43.970;22.868;2023-10-19T02:08:27;101424.28;;;7.72;100.00
63808;BME280;49961;43.970;22.868;2023-10-19T02:09:28;101418.75;;;7.65;100.00
63808;BME280;49961;43.970;22.868;2023-10-19T02:10:30;101408.50;;;7.62;100.00
63808;BME280;49961;43.970;22.868;2023-10-19T02:11:32;101426.25;;;7.68;100.00
63808;BME280;49961;43.970;22.868;2023-10-19T02:12:32;101361.59;;;7.34;100.00
63808;BME280;49961;43.970;22.868;2023-10-19T02:13:34;101419.94;;;7.71;100.00
63808;BME280;49961;43.970;22.868;2023-10-19T02:14:35;101414.41;;;7.71;100.00
63808;BME280;49961;43.970;22.868;2023-10-19T02:15:37;101411.66;;;7.71;100.00
63808;BME280;49961;43.970;22.868;2023-10-19T02:16:38;101380.13;;;7.51;100.00
63808;BME280;49961;43.970;22.868;2023-10-19T02:17:38;101403.78;;;7.62;100.00
63808;BME280;49961;43.970;22.868;2023-10-19T02:18:41;101360.03;;;7.40;100.00
63808;BME280;49961;43.970;22.868;2023-10-19T02:19:42;101408.09;;;7.70;100.00
63808;BME280;49961;43.970;22.868;2023-10-19T02:20:43;101409.69;;;7.61;100.00
63808;BME280;49961;43.970;22.868;2023-10-19T02:21:50;101414.81;;;7.73;100.00
63808;BME280;49961;43.970;22.868;2023-10-19T02:22:52;101410.47;;;7.72;100.00
63808;BME280;49961;43.970;22.868;2023-10-19T02:23:53;101416.78;;;7.72;100.00
63808;BME280;49961;43.970;22.868;2023-10-19T02:24:53;101378.16;;;7.51;100.00
63808;BME280;49961;43.970;22.868;2023-10-19T02:25:54;101416.78;;;7.72;100.00
63808;BME280;49961;43.970;22.868;2023-10-19T02:26:56;101404.94;;;7.72;100.00
63808;BME280;49961;43.970;22.868;2023-10-19T02:27:56;101416.78;;;7.69;100.00
63808;BME280;49961;43.970;22.868;2023-10-19T02:28:57;101412.84;;;7.66;100.00
63808;BME280;49961;43.970;22.868;2023-10-19T02:29:58;101409.72;;;7.68;100.00
63808;BME280;49961;43.970;22.868;2023-10-19T02:30:59;101363.94;;;7.28;100.00
63808;BME280;49961;43.970;22.868;2023-10-19T02:32:11;101345.03;;;7.23;100.00
63808;BME280;49961;43.970;22.868;2023-10-19T02:33:11;101416.38;;;7.70;100.00
63808;BME280;49961;43.970;22.868;2023-10-19T02:34:12;101416.38;;;7.70;100.00
63808;BME280;49961;43.970;22.868;2023-10-19T02:35:15;101414.81;;;7.69;100.00
63808;BME280;49961;43.970;22.868;2023-10-19T02:36:15;101414.41;;;7.67;100.00
63808;BME280;49961;43.970;22.868;2023-10-19T02:37:19;101409.69;;;7.64;100.00
63808;BME280;49961;43.970;22.868;2023-10-19T02:38:20;101373.44;;;7.41;100.00
63808;BME280;49961;43.970;22.868;2023-10-19T02:39:22;101416.78;;;7.72;100.00
63808;BME280;49961;43.970;22.868;2023-10-19T02:40:28;101410.47;;;7.72;100.00
63808;BME280;49961;43.970;22.868;2023-10-19T02:41:31;101410.09;;;7.70;100.00
63808;BME280;49961;43.970;22.868;2023-10-19T02:42:35;101410.09;;;7.70;100.00
63808;BME280;49961;43.970;22.868;2023-10-19T02:43:37;101360.41;;;7.31;100.00
63808;BME280;49961;43.970;22.868;2023-10-19T02:44:38;101409.28;;;7.69;100.00
63808;BME280;49961;43.970;22.868;2023-10-19T02:45:39;101412.47;;;7.71;100.00
63808;BME280;49961;43.970;22.868;2023-10-19T02:46:39;101410.88;;;7.74;100.00
63808;BME280;49961;43.970;22.868;2023-10-19T02:47:43;101306.84;;;7.11;100.00
63808;BME280;49961;43.970;22.868;2023-10-19T02:48:44;101409.69;;;7.78;100.00
63808;BME280;49961;43.970;22.868;2023-10-19T02:49:44;101416.38;;;7.81;100.00
63808;BME280;49961;43.970;22.868;2023-10-19T02:50:51;101408.09;;;7.84;100.00
63808;BME280;49961;43.970;22.868;2023-10-19T02:51:52;101419.16;;;7.84;100.00
63808;BME280;49961;43.970;22.868;2023-10-19T02:52:53;101406.91;;;7.85;100.00
63808;BME280;49961;43.970;22.868;2023-10-19T02:53:53;101406.16;;;7.88;100.00
63808;BME280;49961;43.970;22.868;2023-10-19T02:54:54;101401.03;;;7.83;100.00
63808;BME280;49961;43.970;22.868;2023-10-19T02:55:57;101390.00;;;7.76;100.00
63808;BME280;49961;43.970;22.868;2023-10-19T02:57:00;101418.75;;;7.93;100.00
63808;BME280;49961;43.970;22.868;2023-10-19T02:58:00;101397.06;;;7.81;100.00
63808;BME280;49961;43.970;22.868;2023-10-19T02:59:01;101411.66;;;7.95;100.00
63808;BME280;49961;43.970;22.868;2023-10-19T03:00:05;101423.88;;;7.98;100.00
63808;BME280;49961;43.970;22.868;2023-10-19T03:01:20;101429.41;;;8.01;100.00
63808;BME280;49961;43.970;22.868;2023-10-19T03:02:25;101397.47;;;7.83;100.00
63808;BME280;49961;43.970;22.868;2023-10-19T03:03:28;101423.47;;;8.03;100.00
63808;BME280;49961;43.970;22.868;2023-10-19T03:04:31;101412.44;;;8.03;100.00
63808;BME280;49961;43.970;22.868;2023-10-19T03:05:35;101411.66;;;8.06;100.00
63808;BME280;49961;43.970;22.868;2023-10-19T03:06:36;101405.31;;;8.05;100.00
63808;BME280;49961;43.970;22.868;2023-10-19T03:07:37;101407.31;;;8.05;100.00
63808;BME280;49961;43.970;22.868;2023-10-19T03:08:39;101408.09;;;8.02;100.00
63808;BME280;49961;43.970;22.868;2023-10-19T03:09:39;101406.94;;;7.92;100.00
63808;BME280;49961;43.970;22.868;2023-10-19T03:10:40;101347.03;;;7.54;100.00
63808;BME280;49961;43.970;22.868;2023-10-19T03:11:43;101402.59;;;7.84;100.00
63808;BME280;49961;43.970;22.868;2023-10-19T03:12:44;101389.56;;;7.92;100.00
63808;BME280;49961;43.970;22.868;2023-10-19T03:13:45;101386.03;;;7.91;100.00
63808;BME280;49961;43.970;22.868;2023-10-19T03:14:45;101316.31;;;7.49;100.00
63808;BME280;49961;43.970;22.868;2023-10-19T03:15:49;101352.94;;;7.67;100.00
63808;BME280;49961;43.970;22.868;2023-10-19T03:16:50;101372.25;;;7.77;100.00
63808;BME280;49961;43.970;22.868;2023-10-19T03:17:50;101389.59;;;7.85;100.00
63808;BME280;49961;43.970;22.868;2023-10-19T03:18:51;101391.94;;;7.90;100.00
63808;BME280;49961;43.970;22.868;2023-10-19T03:19:51;101384.44;;;7.90;100.00
63808;BME280;49961;43.970;22.868;2023-10-19T03:20:52;101383.28;;;7.91;100.00
63808;BME280;49961;43.970;22.868;2023-10-19T03:21:53;101387.22;;;7.87;100.00
63808;BME280;49961;43.970;22.868;2023-10-19T03:22:55;101395.50;;;7.83;100.00
63808;BME280;49961;43.970;22.868;2023-10-19T03:23:59;101363.97;;;7.63;100.00
63808;BME280;49961;43.970;22.868;2023-10-19T03:25:13;101386.41;;;7.83;100.00
63808;BME280;49961;43.970;22.868;2023-10-19T03:26:32;101388.03;;;7.84;100.00
63808;BME280;49961;43.970;22.868;2023-10-19T03:27:37;101380.13;;;7.82;100.00
63808;BME280;49961;43.970;22.868;2023-10-19T03:28:37;101378.16;;;7.79;100.00
63808;BME280;49961;43.970;22.868;2023-10-19T03:29:42;101376.97;;;7.77;100.00
63808;BME280;49961;43.970;22.868;2023-10-19T03:30:53;101369.88;;;7.76;100.00
63808;BME280;49961;43.970;22.868;2023-10-19T03:31:55;101365.94;;;7.73;100.00
63808;BME280;49961;43.970;22.868;2023-10-19T03:32:55;101365.16;;;7.62;100.00
63808;BME280;49961;43.970;22.868;2023-10-19T03:33:59;101346.22;;;7.47;100.00
63808;BME280;49961;43.970;22.868;2023-10-19T03:35:02;101380.94;;;7.69;100.00
63808;BME280;49961;43.970;22.868;2023-10-19T03:36:05;101362.78;;;7.64;100.00
63808;BME280;49961;43.970;22.868;2023-10-19T03:37:05;101367.13;;;7.69;100.00
63808;BME280;49961;43.970;22.868;2023-10-19T03:38:08;101326.16;;;7.43;100.00
63808;BME280;49961;43.970;22.868;2023-10-19T03:39:14;101361.19;;;7.70;100.00
63808;BME280;49961;43.970;22.868;2023-10-19T03:40:15;101362.38;;;7.69;100.00
63808;BME280;49961;43.970;22.868;2023-10-19T03:41:25;101373.84;;;7.71;100.00
63808;BME280;49961;43.970;22.868;2023-10-19T03:42:27;101269.81;;;7.12;100.00
63808;BME280;49961;43.970;22.868;2023-10-19T03:43:33;101366.72;;;7.77;100.00
63808;BME280;49961;43.970;22.868;2023-10-19T03:44:35;101359.25;;;7.60;100.00
63808;BME280;49961;43.970;22.868;2023-10-19T03:45:53;101375.41;;;7.72;100.00
63808;BME280;49961;43.970;22.868;2023-10-19T03:46:55;101367.91;;;7.66;100.00
63808;BME280;49961;43.970;22.868;2023-10-19T03:48:01;101334.44;;;7.43;100.00
63808;BME280;49961;43.970;22.868;2023-10-19T03:49:08;101365.56;;;7.54;100.00
63808;BME280;49961;43.970;22.868;2023-10-19T03:50:12;101363.97;;;7.60;100.00
63808;BME280;49961;43.970;22.868;2023-10-19T03:51:20;101371.06;;;7.57;100.00
63808;BME280;49961;43.970;22.868;2023-10-19T03:52:25;101329.28;;;7.24;100.00
63808;BME280;49961;43.970;22.868;2023-10-19T03:53:30;101389.97;;;7.62;100.00
63808;BME280;49961;43.970;22.868;2023-10-19T03:54:32;101359.63;;;7.52;100.00
63808;BME280;49961;43.970;22.868;2023-10-19T03:55:33;101394.97;;;8.55;100.00
63808;BME280;49961;43.970;22.868;2023-10-19T03:56:38;101395.28;;;10.38;100.00
63808;BME280;49961;43.970;22.868;2023-10-19T03:57:39;101391.06;;;10.93;100.00
63808;BME280;49961;43.970;22.868;2023-10-19T03:58:46;101382.84;;;10.53;100.00
63808;BME280;49961;43.970;22.868;2023-10-19T03:59:51;101371.75;;;10.19;100.00
63808;BME280;49961;43.970;22.868;2023-10-19T04:00:57;101372.75;;;9.95;100.00
63808;BME280;49961;43.970;22.868;2023-10-19T04:02:01;101357.47;;;9.80;100.00
63808;BME280;49961;43.970;22.868;2023-10-19T04:03:10;101350.88;;;9.67;100.00
63808;BME280;49961;43.970;22.868;2023-10-19T04:04:12;101314.38;;;9.35;100.00
63808;BME280;49961;43.970;22.868;2023-10-19T04:05:14;101352.94;;;9.56;100.00
63808;BME280;49961;43.970;22.868;2023-10-19T04:06:22;101348.25;;;9.50;100.00
63808;BME280;49961;43.970;22.868;2023-10-19T04:07:23;101325.88;;;9.30;100.00
63808;BME280;49961;43.970;22.868;2023-10-19T04:08:25;101254.34;;;8.81;100.00
63808;BME280;49961;43.970;22.868;2023-10-19T04:09:26;101344.41;;;9.37;100.00
63808;BME280;49961;43.970;22.868;2023-10-19T04:10:30;101346.81;;;9.31;100.00
63808;BME280;49961;43.970;22.868;2023-10-19T04:11:31;101340.06;;;9.32;100.00
63808;BME280;49961;43.970;22.868;2023-10-19T04:12:48;101341.66;;;9.30;100.00
63808;BME280;49961;43.970;22.868;2023-10-19T04:13:49;101341.31;;;9.28;100.00
63808;BME280;49961;43.970;22.868;2023-10-19T04:14:56;101331.44;;;9.27;100.00
63808;BME280;49961;43.970;22.868;2023-10-19T04:15:57;101329.88;;;9.22;100.00
63808;BME280;49961;43.970;22.868;2023-10-19T04:16:57;101237.13;;;8.56;100.00
63808;BME280;49961;43.970;22.868;2023-10-19T04:17:59;101334.22;;;9.23;100.00
63808;BME280;49961;43.970;22.868;2023-10-19T04:19:00;101336.97;;;9.23;100.00
63808;BME280;49961;43.970;22.868;2023-10-19T04:20:05;101333.03;;;9.21;100.00
63808;BME280;49961;43.970;22.868;2023-10-19T04:21:28;101336.63;;;9.18;100.00
63808;BME280;49961;43.970;22.868;2023-10-19T04:22:29;101324.88;;;9.07;100.00
63808;BME280;49961;43.970;22.868;2023-10-19T04:23:30;101283.97;;;8.77;100.00
63808;BME280;49961;43.970;22.868;2023-10-19T04:24:35;101338.19;;;9.19;100.00
63808;BME280;49961;43.970;22.868;2023-10-19T04:25:35;101347.28;;;9.19;100.00
63808;BME280;49961;43.970;22.868;2023-10-19T04:26:37;101355.97;;;9.21;100.00
63808;BME280;49961;43.970;22.868;2023-10-19T04:27:37;101345.69;;;9.18;100.00
63808;BME280;49961;43.970;22.868;2023-10-19T04:28:41;101352.44;;;9.17;100.00
63808;BME280;49961;43.970;22.868;2023-10-19T04:29:45;101310.31;;;8.92;100.00
63808;BME280;49961;43.970;22.868;2023-10-19T04:30:45;101344.91;;;9.21;100.00
63808;BME280;49961;43.970;22.868;2023-10-19T04:31:46;101354.00;;;9.22;100.00
63808;BME280;49961;43.970;22.868;2023-10-19T04:32:56;101341.75;;;9.19;100.00
63808;BME280;49961;43.970;22.868;2023-10-19T04:33:57;101344.13;;;9.17;100.00
63808;BME280;49961;43.970;22.868;2023-10-19T04:34:58;101339.44;;;9.14;100.00
63808;BME280;49961;43.970;22.868;2023-10-19T04:35:59;101313.03;;;9.03;100.00
63808;BME280;49961;43.970;22.868;2023-10-19T04:37:00;101329.56;;;9.10;100.00
63808;BME280;49961;43.970;22.868;2023-10-19T04:38:06;101331.13;;;9.14;100.00
63808;BME280;49961;43.970;22.868;2023-10-19T04:39:06;101341.00;;;9.15;100.00
63808;BME280;49961;43.970;22.868;2023-10-19T04:40:12;101336.66;;;9.14;100.00
63808;BME280;49961;43.970;22.868;2023-10-19T04:41:12;101344.56;;;9.12;100.00
63808;BME280;49961;43.970;22.868;2023-10-19T04:42:13;101346.94;;;9.10;100.00
63808;BME280;49961;43.970;22.868;2023-10-19T04:43:14;101284.38;;;8.72;100.00
63808;BME280;49961;43.970;22.868;2023-10-19T04:44:16;101349.28;;;9.15;100.00
63808;BME280;49961;43.970;22.868;2023-10-19T04:45:17;101351.66;;;9.13;100.00
63808;BME280;49961;43.970;22.868;2023-10-19T04:46:18;101346.94;;;9.10;100.00
63808;BME280;49961;43.970;22.868;2023-10-19T04:47:19;101341.81;;;9.09;100.00
63808;BME280;49961;43.970;22.868;2023-10-19T04:48:19;101333.53;;;9.09;100.00
63808;BME280;49961;43.970;22.868;2023-10-19T04:49:20;101327.63;;;9.07;100.00
63808;BME280;49961;43.970;22.868;2023-10-19T04:50:20;101315.84;;;8.96;100.00
63808;BME280;49961;43.970;22.868;2023-10-19T04:51:21;101341.06;;;9.01;100.00
63808;BME280;49961;43.970;22.868;2023-10-19T04:52:21;101322.19;;;8.93;100.00
63808;BME280;49961;43.970;22.868;2023-10-19T04:53:22;101337.91;;;9.03;100.00
63808;BME280;49961;43.970;22.868;2023-10-19T04:54:22;101321.41;;;8.89;100.00
63808;BME280;49961;43.970;22.868;2023-10-19T04:55:23;101343.03;;;9.04;100.00
63808;BME280;49961;43.970;22.868;2023-10-19T04:56:23;101218.34;;;8.27;100.00
63808;BME280;49961;43.970;22.868;2023-10-19T04:57:24;101361.56;;;9.07;100.00
63808;BME280;49961;43.970;22.868;2023-10-19T04:58:24;101338.25;;;9.12;100.00
63808;BME280;49961;43.970;22.868;2023-10-19T04:59:25;101348.13;;;9.13;100.00
63808;BME280;49961;43.970;22.868;2023-10-19T05:00:25;101338.25;;;9.12;100.00
63808;BME280;49961;43.970;22.868;2023-10-19T05:01:28;101329.97;;;9.12;100.00
63808;BME280;49961;43.970;22.868;2023-10-19T05:02:29;101345.69;;;9.22;100.00
63808;BME280;49961;43.970;22.868;2023-10-19T05:03:30;101356.34;;;9.27;100.00
63808;BME280;49961;43.970;22.868;2023-10-19T05:04:30;101356.69;;;9.29;100.00
63808;BME280;49961;43.970;22.868;2023-10-19T05:05:31;101345.63;;;9.29;100.00
63808;BME280;49961;43.970;22.868;2023-10-19T05:06:32;101345.59;;;9.32;100.00
63808;BME280;49961;43.970;22.868;2023-10-19T05:07:32;101357.91;;;9.28;100.00
63808;BME280;49961;43.970;22.868;2023-10-19T05:08:33;101322.88;;;9.07;100.00
63808;BME280;49961;43.970;22.868;2023-10-19T05:09:34;101265.03;;;8.76;100.00
63808;BME280;49961;43.970;22.868;2023-10-19T05:10:39;101358.25;;;9.33;100.00
63808;BME280;49961;43.970;22.868;2023-10-19T05:11:42;101363.38;;;9.35;100.00
63808;BME280;49961;43.970;22.868;2023-10-19T05:12:44;101364.16;;;9.35;100.00
63808;BME280;49961;43.970;22.868;2023-10-19T05:13:44;101363.47;;;9.24;100.00
63808;BME280;49961;43.970;22.868;2023-10-19T05:14:45;101373.63;;;9.38;100.00
63808;BME280;49961;43.970;22.868;2023-10-19T05:15:46;101363.78;;;9.33;100.00
63808;BME280;49961;43.970;22.868;2023-10-19T05:16:47;101306.72;;;8.99;100.00
63808;BME280;49961;43.970;22.868;2023-10-19T05:17:48;101363.38;;;9.35;100.00
63808;BME280;49961;43.970;22.868;2023-10-19T05:18:48;101361.81;;;9.34;100.00
63808;BME280;49961;43.970;22.868;2023-10-19T05:19:49;101354.72;;;9.29;100.00
63808;BME280;49961;43.970;22.868;2023-10-19T05:20:50;101281.97;;;8.81;100.00
63808;BME280;49961;43.970;22.868;2023-10-19T05:21:55;101357.50;;;9.29;100.00
63808;BME280;49961;43.970;22.868;2023-10-19T05:22:56;101358.28;;;9.30;100.00
63808;BME280;49961;43.970;22.868;2023-10-19T05:23:58;101362.63;;;9.27;100.00
63808;BME280;49961;43.970;22.868;2023-10-19T05:25:00;101361.44;;;9.28;100.00
63808;BME280;49961;43.970;22.868;2023-10-19T05:26:03;101362.22;;;9.29;100.00
63808;BME280;49961;43.970;22.868;2023-10-19T05:27:04;101249.38;;;8.55;100.00